createdAt,value
2023-05-21T16:33:00.683Z,460.2143
2023-05-21T16:34:03.595Z,458.2308
2023-05-21T16:35:06.538Z,458.0000
2023-05-21T16:36:09.487Z,455.6923
2023-05-21T16:37:12.455Z,451.9231
2023-05-21T16:38:15.435Z,448.5385
2023-05-21T16:39:18.376Z,455.2308
2023-05-21T16:40:21.318Z,463.0000
2023-05-21T16:41:24.306Z,472.0769
2023-05-21T16:42:27.323Z,476.4615
2023-05-21T16:43:30.223Z,475.0000
2023-05-21T16:44:33.172Z,475.6923
2023-05-21T16:45:36.339Z,472.3846
2023-05-21T16:46:39.174Z,475.9231
2023-05-21T16:47:42.181Z,485.1538
2023-05-21T16:48:44.995Z,489.3846
2023-05-21T16:49:48.007Z,491.2308
2023-05-21T16:50:50.933Z,492.1538
2023-05-21T16:51:53.897Z,491.5385
2023-05-21T16:52:56.837Z,488.1538
2023-05-21T16:53:59.803Z,490.3077
2023-05-21T16:55:02.790Z,495.2308
2023-05-21T16:56:05.781Z,473.6154
2023-05-21T16:57:08.679Z,451.6154
2023-05-21T16:58:11.643Z,462.6154
2023-05-21T16:59:14.605Z,474.4615
2023-05-21T17:00:17.580Z,480.1538
2023-05-21T17:01:20.628Z,480.5385
2023-05-21T17:02:23.560Z,479.8462
2023-05-21T17:03:26.477Z,476.8462
2023-05-21T17:04:29.453Z,480.1538
2023-05-21T17:05:32.388Z,483.8462
2023-05-21T17:06:35.314Z,485.3077
2023-05-21T17:07:38.274Z,486.9231
2023-05-21T17:08:41.245Z,490.0000
2023-05-21T17:09:44.256Z,491.0000
2023-05-21T17:10:47.419Z,490.1538
2023-05-21T17:11:50.140Z,489.1538
2023-05-21T17:12:53.129Z,483.7692
2023-05-21T17:13:56.053Z,481.9231
2023-05-21T17:14:59.017Z,481.6154
2023-05-21T17:16:02.001Z,477.0000
2023-05-21T17:17:04.927Z,475.4615
2023-05-21T17:18:07.932Z,470.6154
2023-05-21T17:19:10.894Z,466.6923
2023-05-21T17:20:13.787Z,463.8462
2023-05-21T17:21:16.767Z,464.6923
2023-05-21T17:22:19.894Z,464.0769
2023-05-21T17:23:22.765Z,466.2308
2023-05-21T17:24:25.615Z,462.1538
2023-05-21T17:25:28.572Z,465.1538
2023-05-21T17:26:31.568Z,470.3846
2023-05-21T17:27:34.509Z,472.6923
2023-05-21T17:28:37.453Z,473.2308
2023-05-21T17:29:40.403Z,473.3846
2023-05-21T17:30:43.373Z,472.5385
2023-05-21T17:31:46.366Z,476.0000
2023-05-21T17:32:49.309Z,485.7692
2023-05-21T17:33:52.261Z,489.6923
2023-05-21T17:34:55.203Z,494.6154
2023-05-21T17:35:58.180Z,497.1538
2023-05-21T17:37:01.111Z,498.0769
2023-05-21T17:38:04.130Z,497.0769
2023-05-21T17:39:07.051Z,499.5385
2023-05-21T17:40:09.999Z,494.7692
2023-05-21T17:41:12.952Z,489.8462
2023-05-21T17:42:15.902Z,490.9231
2023-05-21T17:43:18.858Z,486.1538
2023-05-21T17:44:21.852Z,484.7692
2023-05-21T17:45:24.782Z,489.7692
2023-05-21T17:46:27.768Z,497.0769
2023-05-21T17:47:30.708Z,502.3846
2023-05-21T17:48:33.645Z,502.3846
2023-05-21T17:49:36.683Z,499.8462
2023-05-21T17:50:39.557Z,500.3077
2023-05-21T17:51:42.516Z,503.0000
2023-05-21T17:52:45.501Z,498.6154
2023-05-21T17:53:48.432Z,497.4615
2023-05-21T17:54:51.376Z,492.9231
2023-05-21T17:55:54.551Z,489.4615
2023-05-21T17:56:57.290Z,489.6154
2023-05-21T17:58:00.233Z,490.5385
2023-05-21T17:59:03.195Z,489.7692
2023-05-21T18:00:06.141Z,491.0769
2023-05-21T18:01:09.125Z,492.2308
2023-05-21T18:02:12.085Z,493.5385
2023-05-21T18:03:15.103Z,503.3077
2023-05-21T18:04:18.051Z,498.2308
2023-05-21T18:05:20.932Z,481.5385
2023-05-21T18:06:23.914Z,465.2308
2023-05-21T18:07:26.846Z,466.8462
2023-05-21T18:08:29.878Z,472.3846
2023-05-21T18:09:32.759Z,478.6923
2023-05-21T18:10:35.712Z,483.1538
2023-05-21T18:11:38.693Z,485.0000
2023-05-21T18:12:41.634Z,486.8462
2023-05-21T18:13:44.599Z,487.3846
2023-05-21T18:14:47.675Z,488.1538
2023-05-21T18:15:50.509Z,487.6923
2023-05-21T18:16:53.541Z,487.9231
2023-05-21T18:17:56.541Z,487.5385
2023-05-21T18:18:59.449Z,485.7692
2023-05-21T18:20:02.357Z,484.6923
2023-05-21T18:21:05.275Z,483.0769
2023-05-21T18:22:08.256Z,484.3077
2023-05-21T18:23:11.197Z,485.6154
2023-05-21T18:24:14.160Z,486.5385
2023-05-21T18:25:17.124Z,488.3077
2023-05-21T18:26:20.602Z,484.0000
2023-05-21T18:27:23.078Z,484.0000
2023-05-21T18:28:26.036Z,483.2308
2023-05-21T18:29:28.911Z,484.1538
2023-05-21T18:30:31.875Z,473.8462
2023-05-21T18:31:34.915Z,452.0000
2023-05-21T18:32:37.833Z,459.3846
2023-05-21T18:33:40.734Z,468.6154
2023-05-21T18:34:43.706Z,471.7692
2023-05-21T18:35:46.714Z,472.6923
2023-05-21T18:36:49.600Z,473.6923
2023-05-21T18:37:52.573Z,474.4615
2023-05-21T18:38:55.533Z,476.2308
2023-05-21T18:39:58.488Z,477.4615
2023-05-21T18:41:01.421Z,477.6154
2023-05-21T18:42:12.832Z,479.9231
2023-05-21T18:43:07.316Z,479.3846
2023-05-21T18:44:10.341Z,477.3846
2023-05-21T18:45:13.226Z,474.3077
2023-05-21T18:46:16.247Z,473.2308
2023-05-21T18:47:19.142Z,470.0000
2023-05-21T18:48:22.093Z,464.8462
2023-05-21T18:49:25.043Z,459.6923
2023-05-21T18:50:27.961Z,458.0769
2023-05-21T18:51:30.926Z,456.6923
2023-05-21T18:52:33.870Z,456.3846
2023-05-21T18:53:36.811Z,458.2308
2023-05-21T18:54:39.752Z,457.6154
2023-05-21T18:55:42.727Z,456.9231
2023-05-21T18:56:45.666Z,456.2308
2023-05-21T18:57:48.607Z,456.3077
2023-05-21T18:58:51.556Z,457.7692
2023-05-21T18:59:54.511Z,459.8462
2023-05-21T19:00:57.450Z,460.6154
2023-05-21T19:02:00.451Z,461.1538
2023-05-21T19:03:03.408Z,462.9231
2023-05-21T19:04:06.326Z,460.9231
2023-05-21T19:05:09.333Z,461.6154
2023-05-21T19:06:12.322Z,462.1538
2023-05-21T19:07:15.139Z,464.1538
2023-05-21T19:08:18.086Z,467.0769
2023-05-21T19:09:21.115Z,467.0000
2023-05-21T19:10:24.089Z,467.3846
2023-05-21T19:11:27.072Z,467.3077
2023-05-21T19:12:29.902Z,469.0000
2023-05-21T19:13:32.928Z,472.6154
2023-05-21T19:14:35.798Z,475.1538
2023-05-21T19:15:38.882Z,476.0000
2023-05-21T19:16:41.817Z,475.5385
2023-05-21T19:17:44.652Z,474.6923
2023-05-21T19:18:47.646Z,474.2308
2023-05-21T19:19:50.599Z,478.0000
2023-05-21T19:20:53.491Z,479.6923
2023-05-21T19:21:56.501Z,478.6154
2023-05-21T19:22:59.421Z,476.0000
2023-05-21T19:24:04.853Z,477.3846
2023-05-21T19:25:05.314Z,476.3077
2023-05-21T19:26:08.270Z,475.7692
2023-05-21T19:27:11.332Z,475.5385
2023-05-21T19:28:14.232Z,475.6923
2023-05-21T19:29:17.138Z,472.5385
2023-05-21T19:30:20.170Z,470.9231
2023-05-21T19:31:23.276Z,468.1538
2023-05-21T19:32:26.055Z,468.4615
2023-05-21T19:33:29.049Z,469.7692
2023-05-21T19:34:32.031Z,469.2308
2023-05-21T19:35:34.944Z,468.5385
2023-05-21T19:36:51.647Z,471.9231
2023-05-21T19:37:40.734Z,475.3077
2023-05-21T19:38:43.677Z,478.0000
2023-05-21T19:39:46.696Z,481.4615
2023-05-21T19:40:49.575Z,484.5385
2023-05-21T19:41:52.549Z,484.6923
2023-05-21T19:42:55.490Z,489.5385
2023-05-21T19:43:58.436Z,488.5385
2023-05-21T19:45:01.363Z,485.5385
2023-05-21T19:46:04.383Z,481.1538
2023-05-21T19:47:07.286Z,484.1538
2023-05-21T19:48:10.275Z,484.4615
2023-05-21T19:49:13.314Z,484.6154
2023-05-21T19:50:16.214Z,484.3846
2023-05-21T19:51:19.138Z,483.1538
2023-05-21T19:52:22.087Z,484.5385
2023-05-21T19:53:24.978Z,485.1538
2023-05-21T19:54:27.969Z,485.3077
2023-05-21T19:55:30.883Z,486.2308
2023-05-21T19:56:33.847Z,487.2308
2023-05-21T19:57:36.778Z,486.3077
2023-05-21T19:58:39.735Z,482.6923
2023-05-21T19:59:42.693Z,480.9231
2023-05-21T20:00:45.957Z,485.7692
2023-05-21T20:01:48.602Z,492.3846
2023-05-21T20:02:51.609Z,498.3077
2023-05-21T20:03:54.604Z,507.4615
2023-05-21T20:04:57.563Z,514.7692
2023-05-21T20:06:00.404Z,524.8461
2023-05-21T20:07:03.352Z,532.3846
2023-05-21T20:08:06.334Z,532.9231
2023-05-21T20:09:09.283Z,533.2308
2023-05-21T20:10:12.287Z,536.3846
2023-05-21T20:11:15.157Z,537.4615
2023-05-21T20:12:18.064Z,539.0769
2023-05-21T20:13:21.238Z,539.1539
2023-05-21T20:14:23.957Z,527.0769
2023-05-21T20:15:27.072Z,521.6923
2023-05-21T20:16:29.864Z,525.0000
2023-05-21T20:17:32.937Z,518.6923
2023-05-21T20:18:35.765Z,518.0769
2023-05-21T20:19:38.768Z,518.2308
2023-05-21T20:20:41.843Z,517.5385
2023-05-21T20:21:44.600Z,519.2308
2023-05-21T20:22:47.551Z,518.2308
2023-05-21T20:23:50.841Z,518.6923
2023-05-21T20:24:53.577Z,522.3077
2023-05-21T20:25:56.401Z,526.2308
2023-05-21T20:26:59.349Z,528.3846
2023-05-21T20:28:02.302Z,529.6923
2023-05-21T20:29:05.256Z,533.2308
2023-05-21T20:30:08.511Z,536.6923
2023-05-21T20:31:11.239Z,535.5385
2023-05-21T20:32:14.080Z,535.6923
2023-05-21T20:33:17.457Z,538.3846
2023-05-21T20:34:19.996Z,542.5385
2023-05-21T20:35:22.967Z,543.3077
2023-05-21T20:36:25.987Z,539.1539
2023-05-21T20:37:28.927Z,535.6923
2023-05-21T20:38:31.934Z,535.3077
2023-05-21T20:39:34.849Z,538.5385
2023-05-21T20:40:37.916Z,540.4615
2023-05-21T20:41:40.749Z,535.4615
2023-05-21T20:42:43.701Z,532.2308
2023-05-21T20:43:46.642Z,532.1539
2023-05-21T20:44:49.602Z,531.4615
2023-05-21T20:45:52.582Z,530.0000
2023-05-21T20:46:55.563Z,527.5385
2023-05-21T20:47:58.629Z,524.9231
2023-05-21T20:49:01.537Z,522.6923
2023-05-21T20:50:04.391Z,522.0000
2023-05-21T20:51:07.384Z,522.2308
2023-05-21T20:52:10.318Z,522.2308
2023-05-21T20:53:13.239Z,524.7692
2023-05-21T20:54:16.692Z,525.8461
2023-05-21T20:55:19.169Z,527.0769
2023-05-21T20:56:39.896Z,526.7692
2023-05-21T20:57:25.163Z,528.3846
2023-05-21T20:58:28.021Z,533.8461
2023-05-21T20:59:30.951Z,539.1539
2023-05-21T21:00:33.926Z,543.4615
2023-05-21T21:01:36.875Z,541.5385
2023-05-21T21:02:40.024Z,537.4615
2023-05-21T21:03:42.846Z,534.8461
2023-05-21T21:04:45.741Z,530.5385
2023-05-21T21:05:48.674Z,532.3846
2023-05-21T21:06:51.641Z,532.1539
2023-05-21T21:07:55.887Z,527.7692
2023-05-21T21:08:57.564Z,524.4615
2023-05-21T21:10:00.571Z,527.0769
2023-05-21T21:11:03.480Z,527.3077
2023-05-21T21:12:17.861Z,543.0000
2023-05-21T21:13:09.397Z,578.6154
2023-05-21T21:14:12.317Z,581.9231
2023-05-21T21:15:15.270Z,584.5385
2023-05-21T21:16:18.281Z,579.2308
2023-05-21T21:17:21.278Z,563.6154
2023-05-21T21:18:24.130Z,546.4615
2023-05-21T21:19:27.259Z,548.6154
2023-05-21T21:20:30.181Z,551.7692
2023-05-21T21:21:32.980Z,553.5385
2023-05-21T21:22:35.910Z,558.3846
2023-05-21T21:23:38.866Z,562.9231
2023-05-21T21:24:41.824Z,567.2308
2023-05-21T21:25:44.766Z,569.4615
2023-05-21T21:26:47.705Z,564.8461
2023-05-21T21:27:50.658Z,556.7692
2023-05-21T21:28:53.606Z,548.1539
2023-05-21T21:29:56.553Z,544.7692
2023-05-21T21:30:59.517Z,544.8461
2023-05-21T21:32:02.575Z,544.3846
2023-05-21T21:33:05.575Z,541.2308
2023-05-21T21:34:08.406Z,539.3077
2023-05-21T21:35:11.309Z,534.8461
2023-05-21T21:36:14.429Z,531.0769
2023-05-21T21:37:17.187Z,531.2308
2023-05-21T21:38:20.165Z,540.2308
2023-05-21T21:39:23.097Z,544.4615
2023-05-21T21:40:26.034Z,548.2308
2023-05-21T21:41:28.973Z,547.2308
2023-05-21T21:42:32.031Z,545.3846
2023-05-21T21:43:34.884Z,543.6154
2023-05-21T21:44:37.828Z,540.3846
2023-05-21T21:45:40.776Z,538.6154
2023-05-21T21:46:43.739Z,537.3846
2023-05-21T21:47:46.814Z,534.4615
2023-05-21T21:48:49.633Z,530.8461
2023-05-21T21:49:52.570Z,530.2308
2023-05-21T21:50:55.723Z,527.4615
2023-05-21T21:51:58.478Z,521.4615
2023-05-21T21:53:01.420Z,523.7692
2023-05-21T21:54:04.386Z,527.0000
2023-05-21T21:55:07.347Z,532.6154
2023-05-21T21:56:10.262Z,533.8461
2023-05-21T21:57:13.216Z,535.7692
2023-05-21T21:58:16.163Z,535.3846
2023-05-21T21:59:19.129Z,536.8461
2023-05-21T22:00:22.075Z,536.3077
2023-05-21T22:01:25.118Z,534.6923
2023-05-21T22:02:28.022Z,533.0769
2023-05-21T22:03:30.919Z,532.9231
2023-05-21T22:04:33.905Z,532.9231
2023-05-21T22:05:36.818Z,534.0000
2023-05-21T22:06:39.780Z,537.0769
2023-05-21T22:07:42.737Z,536.6154
2023-05-21T22:08:45.693Z,536.0000
2023-05-21T22:09:48.618Z,538.1539
2023-05-21T22:10:51.568Z,540.8461
2023-05-21T22:11:54.516Z,541.8461
2023-05-21T22:12:57.433Z,541.6154
2023-05-21T22:14:00.436Z,539.1539
2023-05-21T22:15:03.345Z,536.3846
2023-05-21T22:16:06.335Z,539.3846
2023-05-21T22:17:09.352Z,538.3846
2023-05-21T22:18:12.250Z,538.4615
2023-05-21T22:19:15.163Z,539.9231
2023-05-21T22:20:18.087Z,538.5385
2023-05-21T22:21:21.021Z,538.8461
2023-05-21T22:22:23.973Z,539.9231
2023-05-21T22:23:26.913Z,537.1539
2023-05-21T22:24:32.987Z,536.5385
2023-05-21T22:25:32.850Z,537.5385
2023-05-21T22:26:35.790Z,539.3846
2023-05-21T22:27:38.764Z,544.3846
2023-05-21T22:28:41.676Z,548.1539
2023-05-21T22:29:44.620Z,548.3077
2023-05-21T22:30:47.600Z,546.9231
2023-05-21T22:31:50.544Z,542.6923
2023-05-21T22:32:53.511Z,540.2308
2023-05-21T22:33:56.438Z,542.7692
2023-05-21T22:34:59.382Z,545.7692
2023-05-21T22:36:02.331Z,547.4615
2023-05-21T22:37:05.272Z,539.3077
2023-05-21T22:38:08.218Z,537.9231
2023-05-21T22:39:11.355Z,545.6923
2023-05-21T22:40:14.102Z,543.3077
2023-05-21T22:41:17.078Z,540.5385
2023-05-21T22:42:20.019Z,544.4615
2023-05-21T22:43:22.996Z,560.0000
2023-05-21T22:44:25.921Z,565.3077
2023-05-21T22:45:28.892Z,563.9231
2023-05-21T22:46:31.844Z,562.9231
2023-05-21T22:47:34.830Z,556.9231
2023-05-21T22:48:37.713Z,544.7692
2023-05-21T22:49:40.750Z,541.1539
2023-05-21T22:50:43.623Z,542.7692
2023-05-21T22:51:46.598Z,550.1539
2023-05-21T22:52:49.522Z,560.0769
2023-05-21T22:53:52.499Z,557.0000
2023-05-21T22:54:55.420Z,552.0769
2023-05-21T22:55:58.368Z,551.7692
2023-05-21T22:57:01.318Z,544.0769
2023-05-21T22:58:04.287Z,543.4615
2023-05-21T22:59:07.223Z,541.9231
2023-05-21T23:00:10.185Z,543.7692
2023-05-21T23:01:13.115Z,543.6923
2023-05-21T23:02:16.173Z,541.1539
2023-05-21T23:03:18.998Z,545.3846
2023-05-21T23:04:32.136Z,547.8461
2023-05-21T23:05:24.932Z,548.6154
2023-05-21T23:06:27.901Z,550.8461
2023-05-21T23:07:30.825Z,552.1539
2023-05-21T23:08:33.776Z,555.4615
2023-05-21T23:09:36.749Z,545.2308
2023-05-21T23:10:39.978Z,524.9231
2023-05-21T23:11:42.646Z,524.1539
2023-05-21T23:12:45.620Z,527.6154
2023-05-21T23:13:48.577Z,528.6154
2023-05-21T23:14:51.516Z,538.8461
2023-05-21T23:15:54.534Z,542.6154
2023-05-21T23:16:57.401Z,542.3077
2023-05-21T23:18:00.419Z,538.9231
2023-05-21T23:19:03.369Z,539.4615
2023-05-21T23:20:06.300Z,545.7692
2023-05-21T23:21:09.281Z,546.7692
2023-05-21T23:22:12.204Z,546.3846
2023-05-21T23:23:15.116Z,547.8461
2023-05-21T23:24:18.079Z,544.8461
2023-05-21T23:25:21.106Z,541.3846
2023-05-21T23:26:23.977Z,544.5385
2023-05-21T23:27:26.936Z,547.4615
2023-05-21T23:28:29.870Z,537.6154
2023-05-21T23:29:32.835Z,531.4615
2023-05-21T23:30:35.825Z,531.6154
2023-05-21T23:31:38.743Z,528.6923
2023-05-21T23:32:41.726Z,521.6923
2023-05-21T23:33:44.633Z,518.0769
2023-05-21T23:34:47.610Z,514.4615
2023-05-21T23:35:50.617Z,513.1539
2023-05-21T23:36:53.498Z,512.5385
2023-05-21T23:37:56.464Z,512.0769
2023-05-21T23:38:59.397Z,513.9231
2023-05-21T23:40:02.360Z,527.1539
2023-05-21T23:41:05.279Z,541.3077
2023-05-21T23:42:08.242Z,540.2308
2023-05-21T23:43:11.182Z,538.7692
2023-05-21T23:44:14.199Z,542.5385
2023-05-21T23:45:17.097Z,543.2308
2023-05-21T23:46:20.106Z,539.2308
2023-05-21T23:47:22.997Z,536.8461
2023-05-21T23:48:25.978Z,536.4615
2023-05-21T23:49:28.886Z,536.3077
2023-05-21T23:50:31.864Z,535.9231
2023-05-21T23:51:34.826Z,533.8461
2023-05-21T23:52:37.781Z,534.2308
2023-05-21T23:53:40.701Z,536.9231
2023-05-21T23:54:43.655Z,538.1539
2023-05-21T23:55:46.599Z,536.2308
2023-05-21T23:56:49.569Z,535.0769
2023-05-21T23:57:52.508Z,534.4615
2023-05-21T23:58:55.469Z,534.4615
2023-05-21T23:59:58.400Z,531.9231
